Check out our new BloomSky Weather System.

Active alerts

Galveston, TX
  Details for Galveston, TX Coastal Flood Advisory  +1 additional alert


Thunder radar  blitzortung!


Rain radar more information rain snow radar


Visit our other weather sites:

Template documentation
and downloads

And another site



Weather Underground History page Text

Daily Summary for January 5, 2018 Units:  Metric    English   Both
« Previous Day
Next Day »
Daily Weekly Monthly Yearly Custom
  High: Low: Average:
Temperature: -17.8 °C 4.2 °C 8.3 °C
Dew Point: -17.8 °C -2.5 °C 0.9 °C
Humidity: Humidity % 41 % 60 %
Wind Speed: 0 km/h 0 km/h 1.9 km/h
Wind Gust: 0 km/h - -
Wind:- - SE
Pressure: 0 hPa 1026.6 hPa -
Precipitation: 0 mm    
Historical Graphs
 
 
Tabular Data for January 5, 2018
Time Temperature Dew Point Pressure Wind Wind Speed Wind Gust Humidity Rainfall Rate (Hourly)
-17.8 °C -17.8 °C 0 hPa Calm     Humidity % 0 mm
00:00 5.4 °C -2.2 °C 1028 hPa Calm     58 % 0 mm
00:04 5.3 °C -2.3 °C 1028 hPa Calm     58 % 0 mm
00:09 5.3 °C -2.3 °C 1028.3 hPa Calm     58 % 0 mm
00:11 5.3 °C -2.3 °C 1028.3 hPa Calm     58 % 0 mm
00:16 5.3 °C -2.3 °C 1028.3 hPa Calm   1.6 km/h 58 % 0 mm
00:18 5.3 °C -2.3 °C 1028 hPa Calm   1.6 km/h 58 % 0 mm
00:19 5.3 °C -2.3 °C 1028 hPa Calm   1.6 km/h 58 % 0 mm
00:24 5.3 °C -2.3 °C 1028 hPa Calm   1.6 km/h 58 % 0 mm
00:26 5.3 °C -2.3 °C 1028 hPa Calm   1.6 km/h 58 % 0 mm
00:31 5.3 °C -2.1 °C 1028 hPa Calm     59 % 0 mm
00:36 5.3 °C -2.1 °C 1028 hPa Calm     59 % 0 mm
00:37 5.3 °C -2.1 °C 1028 hPa Calm     59 % 0 mm
00:39 5.3 °C -2.1 °C 1028 hPa Calm     59 % 0 mm
00:44 5.2 °C -1.9 °C 1028 hPa Calm     60 % 0 mm
00:47 5.2 °C -1.9 °C 1028 hPa Calm     60 % 0 mm
00:52 5.2 °C -1.9 °C 1028 hPa Calm     60 % 0 mm
00:55 5.1 °C -2 °C 1028 hPa Calm     60 % 0 mm
01:00 5.1 °C -2 °C 1028 hPa Calm     60 % 0 mm
01:02 5.1 °C -2 °C 1028 hPa Calm     60 % 0 mm
01:07 5.1 °C -2 °C 1028 hPa Calm   1.6 km/h 60 % 0 mm
01:11 5.2 °C -1.9 °C 1027.7 hPa Calm   1.6 km/h 60 % 0 mm
01:16 5.2 °C -2.2 °C 1028 hPa Calm   1.6 km/h 59 % 0 mm
01:21 5.3 °C -2.1 °C 1027.7 hPa Calm   1.6 km/h 59 % 0 mm
01:22 5.3 °C -2.1 °C 1027.7 hPa Calm   1.6 km/h 59 % 0 mm
01:27 5.4 °C -2 °C 1027.7 hPa Calm   1.6 km/h 59 % 0 mm
01:28 5.4 °C -2 °C 1027.7 hPa Calm   1.6 km/h 59 % 0 mm
01:33 5.4 °C -2 °C 1027.7 hPa Calm   3.2 km/h 59 % 0 mm
01:38 5.5 °C -2.1 °C 1027.7 hPa Calm   3.2 km/h 58 % 0 mm
01:40 5.5 °C -2.1 °C 1027.7 hPa Calm   3.2 km/h 58 % 0 mm
01:45 5.6 °C -2 °C 1027.7 hPa Calm   3.2 km/h 58 % 0 mm
01:50 5.6 °C -2 °C 1027.7 hPa Calm   1.6 km/h 58 % 0 mm
01:52 5.6 °C -2 °C 1027.7 hPa Calm   1.6 km/h 58 % 0 mm
01:57 5.5 °C -2.1 °C 1028 hPa Calm   1.6 km/h 58 % 0 mm
01:59 5.5 °C -2.1 °C 1028 hPa SE 1.6 km/h 1.6 km/h 58 % 0 mm
02:04 5.5 °C -1.9 °C 1028 hPa Calm   1.6 km/h 59 % 0 mm
02:07 5.5 °C -1.9 °C 1028 hPa Calm   1.6 km/h 59 % 0 mm
02:12 5.5 °C -1.9 °C 1027.7 hPa East 1.6 km/h 1.6 km/h 59 % 0 mm
02:14 5.5 °C -1.9 °C 1027.7 hPa Calm   1.6 km/h 59 % 0 mm
02:18 5.5 °C -1.9 °C 1028 hPa Calm   1.6 km/h 59 % 0 mm
02:24 5.4 °C -2 °C 1027.7 hPa Calm   1.6 km/h 59 % 0 mm
02:30 5.4 °C -2 °C 1028 hPa Calm   1.6 km/h 59 % 0 mm
02:33 5.4 °C -2 °C 1028 hPa Calm   1.6 km/h 59 % 0 mm
02:36 5.4 °C -2 °C 1028 hPa Calm   1.6 km/h 59 % 0 mm
02:41 5.3 °C -2.3 °C 1028 hPa Calm   1.6 km/h 58 % 0 mm
02:42 5.3 °C -2.3 °C 1028 hPa Calm   1.6 km/h 58 % 0 mm
02:43 5.3 °C -2.3 °C 1028 hPa Calm   1.6 km/h 58 % 0 mm
02:48 5.2 °C -2.4 °C 1028 hPa Calm   1.6 km/h 58 % 0 mm
02:50 5.2 °C -2.4 °C 1028 hPa Calm   1.6 km/h 58 % 0 mm
02:55 5.1 °C -2.5 °C 1028 hPa Calm     58 % 0 mm
03:00 5.1 °C -2.3 °C 1028.3 hPa Calm     59 % 0 mm
03:05 4.9 °C -2.2 °C 1028.3 hPa Calm     60 % 0 mm
03:09 4.9 °C -2.2 °C 1028.3 hPa Calm     60 % 0 mm
03:13 4.9 °C -2 °C 1028.3 hPa Calm     61 % 0 mm
03:14 4.9 °C -1.8 °C 1028.3 hPa Calm     62 % 0 mm
03:19 4.9 °C -1.8 °C 1028.3 hPa Calm   1.6 km/h 62 % 0 mm
03:22 4.9 °C -1.8 °C 1028.3 hPa Calm   1.6 km/h 62 % 0 mm
03:28 4.9 °C -1.6 °C 1028.3 hPa Calm   1.6 km/h 63 % 0 mm
03:31 4.9 °C -1.3 °C 1028.3 hPa Calm   1.6 km/h 64 % 0 mm
03:33 4.9 °C -1.3 °C 1028.3 hPa Calm   1.6 km/h 64 % 0 mm
03:38 4.9 °C -1.3 °C 1028.3 hPa Calm   1.6 km/h 64 % 0 mm
03:43 4.8 °C -1.2 °C 1028 hPa Calm   1.6 km/h 65 % 0 mm
03:47 4.8 °C -1.2 °C 1028.3 hPa Calm     65 % 0 mm
03:51 4.8 °C -1.2 °C 1028 hPa Calm     65 % 0 mm
03:55 4.7 °C -1.3 °C 1028 hPa Calm     65 % 0 mm
04:00 4.7 °C -1.3 °C 1028 hPa Calm     65 % 0 mm
04:01 4.7 °C -1.3 °C 1028 hPa Calm     65 % 0 mm
04:02 4.7 °C -1.3 °C 1028 hPa Calm     65 % 0 mm
04:07 4.7 °C -1.7 °C 1028 hPa Calm   1.6 km/h 63 % 0 mm
04:12 4.7 °C -1.7 °C 1027.7 hPa Calm   1.6 km/h 63 % 0 mm
04:13 4.7 °C -1.7 °C 1027.7 hPa Calm   1.6 km/h 63 % 0 mm
04:18 4.7 °C -1.7 °C 1027.7 hPa Calm   1.6 km/h 63 % 0 mm
04:19 4.7 °C -1.7 °C 1028 hPa Calm   1.6 km/h 63 % 0 mm
04:24 4.6 °C -1.8 °C 1028 hPa Calm   1.6 km/h 63 % 0 mm
04:30 4.6 °C -1.6 °C 1028 hPa Calm   1.6 km/h 64 % 0 mm
04:33 4.6 °C -1.6 °C 1028 hPa Calm   1.6 km/h 64 % 0 mm
04:38 4.6 °C -1.6 °C 1028 hPa Calm   1.6 km/h 64 % 0 mm
04:39 4.6 °C -1.6 °C 1028 hPa Calm   1.6 km/h 64 % 0 mm
04:44 4.6 °C -1.6 °C 1028 hPa Calm   1.6 km/h 64 % 0 mm
04:47 4.7 °C -1.5 °C 1028 hPa Calm   1.6 km/h 64 % 0 mm
04:52 4.7 °C -1.5 °C 1028 hPa Calm   1.6 km/h 64 % 0 mm
04:56 4.7 °C -1.5 °C 1028 hPa Calm   1.6 km/h 64 % 0 mm
04:58 4.7 °C -1.5 °C 1028 hPa Calm   1.6 km/h 64 % 0 mm
05:03 4.7 °C -1.5 °C 1028 hPa Calm   1.6 km/h 64 % 0 mm
05:06 4.6 °C -1.6 °C 1028 hPa Calm   1.6 km/h 64 % 0 mm
05:09 4.6 °C -1.6 °C 1028.3 hPa Calm   1.6 km/h 64 % 0 mm
05:14 4.6 °C -1.6 °C 1028.3 hPa Calm   1.6 km/h 64 % 0 mm
05:15 4.6 °C -1.6 °C 1028.3 hPa Calm   1.6 km/h 64 % 0 mm
05:20 4.6 °C -1.6 °C 1028.3 hPa Calm   1.6 km/h 64 % 0 mm
05:21 4.6 °C -1.6 °C 1028.3 hPa Calm   1.6 km/h 64 % 0 mm
05:24 4.6 °C -1.6 °C 1028.3 hPa Calm   1.6 km/h 64 % 0 mm
05:29 4.6 °C -1.4 °C 1028 hPa Calm   1.6 km/h 65 % 0 mm
05:30 4.6 °C -1.4 °C 1028 hPa Calm   1.6 km/h 65 % 0 mm
05:35 4.6 °C -1.4 °C 1028.3 hPa Calm   1.6 km/h 65 % 0 mm
05:39 4.6 °C -1.4 °C 1028 hPa Calm   1.6 km/h 65 % 0 mm
05:44 4.6 °C -1.4 °C 1028.3 hPa Calm   1.6 km/h 65 % 0 mm
05:45 4.6 °C -1.6 °C 1028.3 hPa Calm   1.6 km/h 64 % 0 mm
05:50 4.6 °C -1.4 °C 1028.3 hPa Calm   1.6 km/h 65 % 0 mm
05:51 4.6 °C -1.4 °C 1028.3 hPa Calm   1.6 km/h 65 % 0 mm
05:55 4.6 °C -1.4 °C 1028.3 hPa Calm     65 % 0 mm
06:00 4.6 °C -1.4 °C 1028.7 hPa Calm     65 % 0 mm
06:01 4.6 °C -1.4 °C 1028.7 hPa Calm     65 % 0 mm
06:05 4.5 °C -1.5 °C 1028.7 hPa Calm     65 % 0 mm
06:07 4.5 °C -1.5 °C 1028.7 hPa Calm     65 % 0 mm
06:12 4.6 °C -1.4 °C 1028.7 hPa Calm     65 % 0 mm
06:16 4.6 °C -1.4 °C 1028.7 hPa Calm     65 % 0 mm
06:21 4.7 °C -1.1 °C 1028.7 hPa Calm   1.6 km/h 66 % 0 mm
06:27 4.7 °C -1.1 °C 1028.7 hPa Calm   1.6 km/h 66 % 0 mm
06:28 4.7 °C -1.1 °C 1028.7 hPa Calm   1.6 km/h 66 % 0 mm
06:33 4.8 °C -1 °C 1029 hPa Calm   1.6 km/h 66 % 0 mm
06:38 4.8 °C -0.8 °C 1029 hPa Calm   3.2 km/h 67 % 0 mm
06:41 4.9 °C -0.7 °C 1029 hPa Calm   3.2 km/h 67 % 0 mm
06:46 4.9 °C -0.7 °C 1029 hPa Calm   3.2 km/h 67 % 0 mm
06:47 4.9 °C -0.7 °C 1029 hPa Calm   3.2 km/h 67 % 0 mm
06:50 4.8 °C -0.8 °C 1029 hPa Calm   1.6 km/h 67 % 0 mm
06:54 4.8 °C -0.8 °C 1029 hPa Calm   1.6 km/h 67 % 0 mm
06:59 4.8 °C -0.8 °C 1029 hPa Calm   1.6 km/h 67 % 0 mm
07:03 4.9 °C -0.9 °C 1029 hPa Calm   1.6 km/h 66 % 0 mm
07:09 4.9 °C -0.9 °C 1029.3 hPa Calm   1.6 km/h 66 % 0 mm
07:12 4.9 °C -0.9 °C 1029.3 hPa Calm   1.6 km/h 66 % 0 mm
07:17 4.9 °C -0.9 °C 1029.3 hPa ENE 1.6 km/h 1.6 km/h 66 % 0 mm
07:22 4.9 °C -0.9 °C 1029.3 hPa ESE 1.6 km/h 1.6 km/h 66 % 0 mm
07:27 4.9 °C -0.9 °C 1029.3 hPa East 1.6 km/h 3.2 km/h 66 % 0 mm
07:32 5 °C -1 °C 1029.3 hPa East 3.2 km/h 3.2 km/h 65 % 0 mm
07:37 5.1 °C -0.9 °C 1029 hPa Calm   4.8 km/h 65 % 0 mm
07:40 5.1 °C -0.9 °C 1029 hPa Calm   4.8 km/h 65 % 0 mm
07:45 5.2 °C -0.6 °C 1029 hPa Calm   4.8 km/h 66 % 0 mm
07:50 5.2 °C -0.6 °C 1029 hPa Calm   1.6 km/h 66 % 0 mm
07:51 5.2 °C -0.6 °C 1029 hPa East 1.6 km/h 1.6 km/h 66 % 0 mm
07:56 5.3 °C -0.7 °C 1029.3 hPa Calm   4.8 km/h 65 % 0 mm
08:01 5.3 °C -0.7 °C 1029.3 hPa Calm   4.8 km/h 65 % 0 mm
08:06 5.4 °C -0.7 °C 1029.3 hPa Calm   4.8 km/h 65 % 0 mm
08:11 5.5 °C -0.6 °C 1029.3 hPa SE 1.6 km/h 3.2 km/h 65 % 0 mm
08:16 5.6 °C -0.5 °C 1029.3 hPa Calm   3.2 km/h 65 % 0 mm
08:17 5.7 °C -0.4 °C 1029.3 hPa Calm   3.2 km/h 65 % 0 mm
08:22 5.8 °C -0.3 °C 1029.7 hPa Calm   3.2 km/h 65 % 0 mm
08:27 5.9 °C -0.2 °C 1029.3 hPa Calm   1.6 km/h 65 % 0 mm
08:32 6.1 °C -0.2 °C 1029.3 hPa Calm   1.6 km/h 64 % 0 mm
08:37 6.2 °C -0.3 °C 1029.7 hPa Calm   3.2 km/h 63 % 0 mm
08:40 6.2 °C -0.3 °C 1029.7 hPa Calm   4.8 km/h 63 % 0 mm
08:45 6.3 °C -0.2 °C 1029.7 hPa ESE 1.6 km/h 4.8 km/h 63 % 0 mm
08:49 6.3 °C -0.2 °C 1029.7 hPa ESE 1.6 km/h 4.8 km/h 63 % 0 mm
08:54 6.5 °C 0 °C 1029.7 hPa SE 1.6 km/h 4.8 km/h 63 % 0 mm
08:59 6.6 °C -0.2 °C 1029.7 hPa East 1.6 km/h 4.8 km/h 62 % 0 mm
09:05 6.7 °C -0.1 °C 1029.7 hPa Calm   6.4 km/h 62 % 0 mm
09:10 6.8 °C 0.2 °C 1029.7 hPa Calm   6.4 km/h 63 % 0 mm
09:11 6.9 °C 0.3 °C 1029.7 hPa ENE 1.6 km/h 6.4 km/h 63 % 0 mm
09:16 7.1 °C 0.5 °C 1029.7 hPa NE 3.2 km/h 6.4 km/h 63 % 0 mm
09:21 7.2 °C 0.6 °C 1029.7 hPa SE 4.8 km/h 6.4 km/h 63 % 0 mm
09:24 7.2 °C 0.6 °C 1029.7 hPa SE 1.6 km/h 6.4 km/h 63 % 0 mm
09:29 7.4 °C 0.8 °C 1030 hPa ESE 4.8 km/h 6.4 km/h 63 % 0 mm
09:30 7.4 °C 0.8 °C 1030 hPa East 3.2 km/h 6.4 km/h 63 % 0 mm
09:35 7.7 °C 1.1 °C 1029.7 hPa Calm   6.4 km/h 63 % 0 mm
09:40 8 °C 1.4 °C 1030 hPa SSE 3.2 km/h 6.4 km/h 63 % 0 mm
09:43 8.2 °C 1.4 °C 1030 hPa East 4.8 km/h 6.4 km/h 62 % 0 mm
09:46 8.3 °C 1.2 °C 1030 hPa SSE 1.6 km/h 6.4 km/h 61 % 0 mm
09:50 8.4 °C 1.3 °C 1030 hPa SE 8 km/h 8 km/h 61 % 0 mm
09:55 8.5 °C 1.4 °C 1030 hPa East 3.2 km/h 8 km/h 61 % 0 mm
09:58 8.6 °C 1.7 °C 1030 hPa SSE 3.2 km/h 8 km/h 62 % 0 mm
10:03 9 °C 1.9 °C 1030.4 hPa ESE 3.2 km/h 8 km/h 61 % 0 mm
10:07 9.2 °C 1.8 °C 1030.4 hPa SE 4.8 km/h 8 km/h 60 % 0 mm
10:12 9.3 °C 1.7 °C 1030.4 hPa ESE 4.8 km/h 8 km/h 59 % 0 mm
10:17 9.3 °C 1.7 °C 1030.4 hPa ESE 6.4 km/h 8 km/h 59 % 0 mm
10:22 9.4 °C 2 °C 1030.4 hPa South 4.8 km/h 11.3 km/h 60 % 0 mm
10:27 9.5 °C 1.9 °C 1030.4 hPa SSE 3.2 km/h 14.5 km/h 59 % 0 mm
10:32 9.7 °C 2.1 °C 1030.4 hPa SSE 6.4 km/h 14.5 km/h 59 % 0 mm
10:37 9.8 °C 2.4 °C 1030.4 hPa SSW 3.2 km/h 14.5 km/h 60 % 0 mm
10:42 10.1 °C 2.4 °C 1030.4 hPa SSW 4.8 km/h 11.3 km/h 59 % 0 mm
10:47 10.3 °C 2.6 °C 1030.4 hPa SSE 6.4 km/h 9.7 km/h 59 % 0 mm
10:52 10.9 °C 3 °C 1030.4 hPa Calm   9.7 km/h 58 % 0 mm
11:02 11.8 °C 2.5 °C 1030.4 hPa SW 4.8 km/h 11.3 km/h 53 % 0 mm
11:06 11.9 °C 2.1 °C 1030.4 hPa SSW 6.4 km/h 11.3 km/h 51 % 0 mm
11:10 12.2 °C 2.1 °C 1030.4 hPa SSE 1.6 km/h 11.3 km/h 50 % 0 mm
11:11 12.3 °C 2.2 °C 1030.4 hPa SW 4.8 km/h 11.3 km/h 50 % 0 mm
11:16 12.7 °C 2.3 °C 1030.4 hPa SSE 1.6 km/h 9.7 km/h 49 % 0 mm
11:21 12.7 °C 1.7 °C 1030 hPa ENE 1.6 km/h 9.7 km/h 47 % 0 mm
11:23 12.6 °C 1.3 °C 1030 hPa SE 3.2 km/h 9.7 km/h 46 % 0 mm
11:28 12.2 °C 1.2 °C 1030 hPa SE 6.4 km/h 9.7 km/h 47 % 0 mm
11:33 11.8 °C 1.4 °C 1030 hPa SSW 6.4 km/h 9.7 km/h 49 % 0 mm
11:34 11.7 °C 1.3 °C 1030 hPa SSW 6.4 km/h 9.7 km/h 49 % 0 mm
11:39 11.7 °C 1.9 °C 1029.7 hPa South 4.8 km/h 9.7 km/h 51 % 0 mm
11:43 12.2 °C 2.4 °C 1029.7 hPa Calm   9.7 km/h 51 % 0 mm
11:48 12.3 °C 1.6 °C 1029.7 hPa SSE 3.2 km/h 9.7 km/h 48 % 0 mm
11:51 12.2 °C 1.2 °C 1029.3 hPa SE 3.2 km/h 9.7 km/h 47 % 0 mm
11:53 12.1 °C 0.8 °C 1029.3 hPa ESE 4.8 km/h 9.7 km/h 46 % 0 mm
11:59 12.2 °C 1.2 °C 1029.3 hPa Calm   11.3 km/h 47 % 0 mm
12:00 12.3 °C 1.6 °C 1029.3 hPa SE 1.6 km/h 11.3 km/h 48 % 0 mm
12:05 12.5 °C 1.8 °C 1029.3 hPa ENE 4.8 km/h 11.3 km/h 48 % 0 mm
12:10 12.6 °C 1.9 °C 1029 hPa SE 6.4 km/h 8 km/h 48 % 0 mm
12:12 12.6 °C 1.6 °C 1029 hPa SE 4.8 km/h 8 km/h 47 % 0 mm
12:17 12.6 °C 1 °C 1029 hPa ESE 4.8 km/h 9.7 km/h 45 % 0 mm
12:18 12.6 °C 1 °C 1029 hPa ESE 4.8 km/h 9.7 km/h 45 % 0 mm
12:23 12.7 °C 1.1 °C 1029 hPa SSW 4.8 km/h 9.7 km/h 45 % 0 mm
12:24 12.7 °C 0.8 °C 1029 hPa SSW 6.4 km/h 9.7 km/h 44 % 0 mm
12:29 12.8 °C 1.5 °C 1028.7 hPa SSE 3.2 km/h 9.7 km/h 46 % 0 mm
12:33 12.9 °C 1.6 °C 1028.7 hPa SSE 3.2 km/h 9.7 km/h 46 % 0 mm
12:38 12.8 °C 1.2 °C 1028.7 hPa SE 4.8 km/h 9.7 km/h 45 % 0 mm
12:42 12.8 °C 1.2 °C 1028.7 hPa SSW 1.6 km/h 9.7 km/h 45 % 0 mm
12:44 12.8 °C 1.2 °C 1028.7 hPa SE 3.2 km/h 9.7 km/h 45 % 0 mm
12:49 12.8 °C 1.2 °C 1028.7 hPa SSW 4.8 km/h 9.7 km/h 45 % 0 mm
12:50 12.9 °C 1.2 °C 1028.3 hPa ESE 3.2 km/h 9.7 km/h 45 % 0 mm
12:51 12.9 °C 1.6 °C 1028.3 hPa SE 3.2 km/h 9.7 km/h 46 % 0 mm
12:57 13 °C 1.3 °C 1028.3 hPa SE 4.8 km/h 9.7 km/h 45 % 0 mm
12:58 13 °C 1.3 °C 1028.3 hPa SSE 4.8 km/h 9.7 km/h 45 % 0 mm
13:03 13.1 °C 1.4 °C 1028.3 hPa South 4.8 km/h 9.7 km/h 45 % 0 mm
13:06 13.3 °C 1.9 °C 1028.3 hPa SSW 6.4 km/h 9.7 km/h 46 % 0 mm
13:11 13.6 °C 2.2 °C 1028 hPa ENE 3.2 km/h 9.7 km/h 46 % 0 mm
13:12 13.7 °C 2 °C 1028 hPa East 1.6 km/h 9.7 km/h 45 % 0 mm
13:17 14 °C 1.9 °C 1028 hPa ESE 3.2 km/h 9.7 km/h 44 % 0 mm
13:18 14.1 °C 2 °C 1028 hPa WSW 3.2 km/h 9.7 km/h 44 % 0 mm
13:21 14 °C 1.6 °C 1028 hPa SE 4.8 km/h 9.7 km/h 43 % 0 mm
13:26 14 °C 1.9 °C 1028 hPa South 8 km/h 11.3 km/h 44 % 0 mm
13:31 13.9 °C 2.2 °C 1027.7 hPa SSE 3.2 km/h 11.3 km/h 45 % 0 mm
13:34 13.9 °C 1.8 °C 1027.7 hPa ESE 11.3 km/h 11.3 km/h 44 % 0 mm
13:39 13.8 °C 1.8 °C 1027.7 hPa SSW 4.8 km/h 12.9 km/h 44 % 0 mm
13:40 13.8 °C 1.8 °C 1027.7 hPa South 4.8 km/h 12.9 km/h 44 % 0 mm
13:45 13.8 °C 2.4 °C 1027.7 hPa South 3.2 km/h 12.9 km/h 46 % 0 mm
13:46 13.9 °C 2.2 °C 1027.3 hPa South 4.8 km/h 12.9 km/h 45 % 0 mm
13:47 13.9 °C 2.5 °C 1027.3 hPa South 1.6 km/h 12.9 km/h 46 % 0 mm
13:52 14.2 °C 1.8 °C 1027.7 hPa SSW 9.7 km/h 12.9 km/h 43 % 0 mm
14:03 14.4 °C 2.6 °C 1027.3 hPa SE 4.8 km/h 12.9 km/h 45 % 0 mm
14:08 14.8 °C 2.3 °C 1027 hPa Calm   12.9 km/h 43 % 0 mm
14:13 14.9 °C 2.1 °C 1027 hPa SSE 3.2 km/h 12.9 km/h 42 % 0 mm
14:18 15.2 °C 2.4 °C 1027 hPa South 6.4 km/h 9.7 km/h 42 % 0 mm
14:23 15.1 °C 1.9 °C 1027 hPa South 1.6 km/h 9.7 km/h 41 % 0 mm
14:27 15.2 °C 2 °C 1027 hPa SSW 4.8 km/h 9.7 km/h 41 % 0 mm
14:28 15.2 °C 2.4 °C 1026.6 hPa ESE 8 km/h 9.7 km/h 42 % 0 mm
14:33 15.2 °C 2.4 °C 1026.6 hPa SE 4.8 km/h 9.7 km/h 42 % 0 mm
14:38 15 °C 2.2 °C 1026.6 hPa East 4.8 km/h 11.3 km/h 42 % 0 mm
14:40 15 °C 2.2 °C 1026.6 hPa SE 8 km/h 11.3 km/h 42 % 0 mm
14:45 14.9 °C 1.8 °C 1026.6 hPa SE 6.4 km/h 11.3 km/h 41 % 0 mm
14:50 14.9 °C 2.1 °C 1026.6 hPa South 3.2 km/h 11.3 km/h 42 % 0 mm
14:54 14.9 °C 1.8 °C 1026.6 hPa South 4.8 km/h 11.3 km/h 41 % 0 mm
14:56 14.9 °C 1.8 °C 1026.6 hPa South 6.4 km/h 11.3 km/h 41 % 0 mm
15:01 14.9 °C 2.1 °C 1026.6 hPa ESE 6.4 km/h 11.3 km/h 42 % 0 mm
15:02 14.9 °C 2.1 °C 1026.6 hPa ESE 8 km/h 11.3 km/h 42 % 0 mm
15:07 14.8 °C 1.7 °C 1026.6 hPa Calm   11.3 km/h 41 % 0 mm
15:12 14.9 °C 1.8 °C 1026.6 hPa SSE 4.8 km/h 11.3 km/h 41 % 0 mm
15:14 15 °C 2.2 °C 1026.6 hPa SE 8 km/h 11.3 km/h 42 % 0 mm
15:20 14.8 °C 1.7 °C 1026.6 hPa SE 6.4 km/h 11.3 km/h 41 % 0 mm
15:25 14.8 °C 1.7 °C 1026.6 hPa ESE 3.2 km/h 12.9 km/h 41 % 0 mm
15:30 14.9 °C 2.4 °C 1026.6 hPa South 4.8 km/h 12.9 km/h 43 % 0 mm
15:32 15.1 °C 2.9 °C 1026.6 hPa East 4.8 km/h 12.9 km/h 44 % 0 mm
15:37 15.1 °C 2.3 °C 1026.6 hPa SE 4.8 km/h 12.9 km/h 42 % 0 mm
15:42 15 °C 2.5 °C 1026.6 hPa South 3.2 km/h 11.3 km/h 43 % 0 mm
15:47 14.8 °C 2.7 °C 1026.6 hPa SE 4.8 km/h 11.3 km/h 44 % 0 mm
15:48 14.7 °C 2.6 °C 1026.6 hPa WSW 11.3 km/h 11.3 km/h 44 % 0 mm
15:53 14.6 °C 2.5 °C 1026.6 hPa SSE 6.4 km/h 11.3 km/h 44 % 0 mm
15:54 14.6 °C 2.5 °C 1026.6 hPa SSE 3.2 km/h 11.3 km/h 44 % 0 mm
15:59 14.5 °C 2.1 °C 1026.6 hPa SE 1.6 km/h 11.3 km/h 43 % 0 mm
16:04 14.4 °C 2.3 °C 1026.6 hPa SE 8 km/h 11.3 km/h 44 % 0 mm
16:09 14.3 °C 2.2 °C 1026.6 hPa SE 3.2 km/h 11.3 km/h 44 % 0 mm
16:14 14.3 °C 2.2 °C 1026.6 hPa SSE 6.4 km/h 8 km/h 44 % 0 mm
16:16 14.2 °C 2.1 °C 1026.6 hPa SSW 4.8 km/h 12.9 km/h 44 % 0 mm
16:21 14.2 °C 2.1 °C 1026.6 hPa South 3.2 km/h 12.9 km/h 44 % 0 mm
16:26 14.2 °C 2.1 °C 1026.6 hPa SSW 3.2 km/h 12.9 km/h 44 % 0 mm
16:31 14 °C 1.9 °C 1026.6 hPa SE 3.2 km/h 11.3 km/h 44 % 0 mm
16:33 14 °C 1.9 °C 1026.6 hPa SSE 1.6 km/h 11.3 km/h 44 % 0 mm
16:38 13.9 °C 2.5 °C 1026.6 hPa South 3.2 km/h 9.7 km/h 46 % 0 mm
16:43 13.8 °C 3 °C 1026.6 hPa ESE 3.2 km/h 9.7 km/h 48 % 0 mm
16:48 13.7 °C 3.5 °C 1026.6 hPa SSE 4.8 km/h 8 km/h 50 % 0 mm
16:53 13.4 °C 3.5 °C 1026.6 hPa SE 4.8 km/h 8 km/h 51 % 0 mm
16:54 13.4 °C 3.5 °C 1026.6 hPa ESE 3.2 km/h 8 km/h 51 % 0 mm
16:59 13.2 °C 3.6 °C 1026.6 hPa SE 4.8 km/h 8 km/h 52 % 0 mm
17:04 13 °C 3.9 °C 1026.6 hPa SE 1.6 km/h 8 km/h 54 % 0 mm
17:07 12.8 °C 4 °C 1026.6 hPa East 3.2 km/h 8 km/h 55 % 0 mm
17:13 12.6 °C 3.8 °C 1026.6 hPa Calm   8 km/h 55 % 0 mm
17:14 12.6 °C 3.8 °C 1026.6 hPa East 4.8 km/h 8 km/h 55 % 0 mm
17:19 12.4 °C 3.9 °C 1026.6 hPa SSE 1.6 km/h 8 km/h 56 % 0 mm
17:20 12.3 °C 3.8 °C 1026.6 hPa ESE 3.2 km/h 8 km/h 56 % 0 mm
17:25 12.2 °C 3.9 °C 1026.6 hPa SE 3.2 km/h 6.4 km/h 57 % 0 mm
17:27 12.1 °C 3.8 °C 1026.6 hPa SE 1.6 km/h 6.4 km/h 57 % 0 mm
17:32 11.9 °C 3.6 °C 1026.6 hPa SSE 1.6 km/h 8 km/h 57 % 0 mm
17:37 11.7 °C 3.5 °C 1026.6 hPa Calm   8 km/h 57 % 0 mm
17:42 11.5 °C 3.3 °C 1026.6 hPa Calm   8 km/h 57 % 0 mm
17:47 11.2 °C 3.2 °C 1026.6 hPa Calm   4.8 km/h 58 % 0 mm
17:52 11.1 °C 3.4 °C 1026.6 hPa SE 1.6 km/h 3.2 km/h 59 % 0 mm
17:57 10.9 °C 3.4 °C 1026.6 hPa ESE 1.6 km/h 4.8 km/h 60 % 0 mm
17:59 10.9 °C 3.4 °C 1026.6 hPa Calm   4.8 km/h 60 % 0 mm
18:04 10.7 °C 3.2 °C 1026.6 hPa SE 1.6 km/h 4.8 km/h 60 % 0 mm
18:05 10.7 °C 3.5 °C 1026.6 hPa SE 4.8 km/h 4.8 km/h 61 % 0 mm
18:09 10.6 °C 3.4 °C 1026.6 hPa ESE 3.2 km/h 4.8 km/h 61 % 0 mm
18:14 10.5 °C 3.5 °C 1026.6 hPa Calm   4.8 km/h 62 % 0 mm
18:16 10.4 °C 3.4 °C 1026.6 hPa Calm   6.4 km/h 62 % 0 mm
18:21 10.3 °C 3.6 °C 1026.6 hPa Calm   6.4 km/h 63 % 0 mm
18:26 10.2 °C 3.7 °C 1027 hPa Calm   6.4 km/h 64 % 0 mm
18:31 10 °C 3.7 °C 1027 hPa Calm   3.2 km/h 65 % 0 mm
18:36 9.9 °C 3.6 °C 1027 hPa ESE 1.6 km/h 3.2 km/h 65 % 0 mm
18:41 9.7 °C 3.7 °C 1027 hPa SE 1.6 km/h 3.2 km/h 66 % 0 mm
18:43 9.7 °C 3.7 °C 1027.3 hPa ESE 3.2 km/h 3.2 km/h 66 % 0 mm
18:46 9.6 °C 3.6 °C 1027 hPa Calm   4.8 km/h 66 % 0 mm
18:51 9.6 °C 3.8 °C 1027.3 hPa Calm   4.8 km/h 67 % 0 mm
18:52 9.5 °C 3.7 °C 1027.3 hPa Calm   4.8 km/h 67 % 0 mm
18:57 9.4 °C 3.6 °C 1027.3 hPa ESE 1.6 km/h 4.8 km/h 67 % 0 mm
18:59 9.4 °C 3.6 °C 1027 hPa ESE 1.6 km/h 4.8 km/h 67 % 0 mm
19:03 9.3 °C 3.7 °C 1027.3 hPa ESE 1.6 km/h 3.2 km/h 68 % 0 mm
19:08 9.2 °C 3.6 °C 1027 hPa SE 1.6 km/h 3.2 km/h 68 % 0 mm
19:13 9.1 °C 3.5 °C 1027 hPa SSE 1.6 km/h 4.8 km/h 68 % 0 mm
19:18 8.9 °C 3.5 °C 1027.3 hPa SE 1.6 km/h 6.4 km/h 69 % 0 mm
19:21 8.9 °C 3.5 °C 1027.3 hPa SE 3.2 km/h 6.4 km/h 69 % 0 mm
19:26 8.8 °C 3.4 °C 1027.7 hPa SE 1.6 km/h 6.4 km/h 69 % 0 mm
19:31 8.7 °C 3.5 °C 1027.7 hPa SE 4.8 km/h 6.4 km/h 70 % 0 mm
19:36 8.7 °C 3.5 °C 1027.7 hPa SE 1.6 km/h 6.4 km/h 70 % 0 mm
19:37 8.7 °C 3.5 °C 1027.7 hPa SE 1.6 km/h 6.4 km/h 70 % 0 mm
19:42 8.7 °C 3.5 °C 1027.7 hPa SE 3.2 km/h 6.4 km/h 70 % 0 mm
19:43 8.7 °C 3.5 °C 1027.7 hPa ESE 1.6 km/h 6.4 km/h 70 % 0 mm
19:48 8.6 °C 3.4 °C 1027.7 hPa SSE 4.8 km/h 6.4 km/h 70 % 0 mm
19:49 8.6 °C 3.4 °C 1027.7 hPa SSE 3.2 km/h 6.4 km/h 70 % 0 mm
19:50 8.6 °C 3.4 °C 1028 hPa SSE 1.6 km/h 8 km/h 70 % 0 mm
19:54 8.6 °C 3.4 °C 1027.7 hPa SE 4.8 km/h 8 km/h 70 % 0 mm
19:59 8.4 °C 3.4 °C 1028 hPa SSE 4.8 km/h 8 km/h 71 % 0 mm
20:04 8.4 °C 3.4 °C 1027.7 hPa South 4.8 km/h 8 km/h 71 % 0 mm
20:09 8.3 °C 3.4 °C 1028 hPa Calm   6.4 km/h 71 % 0 mm
20:14 8.2 °C 3.3 °C 1027.7 hPa ESE 1.6 km/h 6.4 km/h 71 % 0 mm
20:17 8.2 °C 3.3 °C 1027.7 hPa SE 1.6 km/h 6.4 km/h 71 % 0 mm
20:22 8.1 °C 3.4 °C 1027.7 hPa SE 1.6 km/h 6.4 km/h 72 % 0 mm
20:26 7.9 °C 3.2 °C 1027.7 hPa ESE 1.6 km/h 6.4 km/h 72 % 0 mm
20:31 7.8 °C 3.1 °C 1027.7 hPa SE 1.6 km/h 6.4 km/h 72 % 0 mm
20:36 7.8 °C 3.3 °C 1028 hPa ESE 4.8 km/h 6.4 km/h 73 % 0 mm
20:41 7.7 °C 3.2 °C 1027.7 hPa ESE 3.2 km/h 8 km/h 73 % 0 mm
20:46 7.7 °C 3.2 °C 1027.7 hPa ESE 1.6 km/h 8 km/h 73 % 0 mm
20:51 7.6 °C 3.3 °C 1027.7 hPa ESE 4.8 km/h 8 km/h 74 % 0 mm
20:56 7.6 °C 3.3 °C 1027.7 hPa SE 3.2 km/h 6.4 km/h 74 % 0 mm
20:59 7.6 °C 3.3 °C 1027.7 hPa SE 1.6 km/h 6.4 km/h 74 % 0 mm
21:04 7.4 °C 3.1 °C 1028 hPa Calm   6.4 km/h 74 % 0 mm
21:09 7.3 °C 3 °C 1028.3 hPa Calm   6.4 km/h 74 % 0 mm
21:14 7.3 °C 3.2 °C 1028 hPa ESE 3.2 km/h 4.8 km/h 75 % 0 mm
21:19 7.2 °C 3.1 °C 1028 hPa ESE 4.8 km/h 4.8 km/h 75 % 0 mm
21:24 7.1 °C 3 °C 1027.7 hPa Calm   4.8 km/h 75 % 0 mm
21:26 7.1 °C 3 °C 1027.7 hPa Calm   4.8 km/h 75 % 0 mm
21:31 6.9 °C 3 °C 1027.7 hPa Calm   4.8 km/h 76 % 0 mm
21:35 6.8 °C 3.1 °C 1027.7 hPa East 1.6 km/h 4.8 km/h 77 % 0 mm
21:40 6.8 °C 3.1 °C 1027.7 hPa Calm   4.8 km/h 77 % 0 mm
21:44 6.7 °C 3.1 °C 1027.7 hPa Calm   4.8 km/h 78 % 0 mm
21:49 6.7 °C 3.3 °C 1027.7 hPa ESE 3.2 km/h 4.8 km/h 79 % 0 mm
21:54 6.7 °C 3.3 °C 1027.7 hPa SE 1.6 km/h 6.4 km/h 79 % 0 mm
21:59 6.7 °C 3.3 °C 1027.7 hPa ESE 1.6 km/h 6.4 km/h 79 % 0 mm
22:00 6.7 °C 3.3 °C 1027.7 hPa ESE 1.6 km/h 6.4 km/h 79 % 0 mm
22:05 6.6 °C 3.2 °C 1027.7 hPa South 1.6 km/h 4.8 km/h 79 % 0 mm
22:08 6.6 °C 3.2 °C 1027.3 hPa ESE 1.6 km/h 4.8 km/h 79 % 0 mm
22:13 6.6 °C 3.4 °C 1027.3 hPa SE 1.6 km/h 4.8 km/h 80 % 0 mm
22:16 6.5 °C 3.3 °C 1027.7 hPa Calm   6.4 km/h 80 % 0 mm
22:21 6.5 °C 3.3 °C 1027.7 hPa SE 1.6 km/h 6.4 km/h 80 % 0 mm
22:24 6.5 °C 3.3 °C 1027.7 hPa SSE 3.2 km/h 6.4 km/h 80 % 0 mm
22:29 6.5 °C 3.3 °C 1027.7 hPa SSE 3.2 km/h 6.4 km/h 80 % 0 mm
22:35 6.4 °C 3.2 °C 1027.7 hPa ESE 3.2 km/h 6.4 km/h 80 % 0 mm
22:40 6.4 °C 3.2 °C 1027.7 hPa ESE 1.6 km/h 4.8 km/h 80 % 0 mm
22:41 6.4 °C 3.2 °C 1027.7 hPa SSE 1.6 km/h 4.8 km/h 80 % 0 mm
22:43 6.3 °C 3.1 °C 1027.7 hPa Calm   4.8 km/h 80 % 0 mm
22:48 6.2 °C 3 °C 1027.7 hPa Calm   3.2 km/h 80 % 0 mm
22:53 6.2 °C 3 °C 1027.7 hPa SE 1.6 km/h 3.2 km/h 80 % 0 mm
22:55 6.2 °C 3 °C 1027.7 hPa Calm   3.2 km/h 80 % 0 mm
23:00 6 °C 2.8 °C 1027.7 hPa Calm   3.2 km/h 80 % 0 mm
23:05 5.8 °C 2.6 °C 1027.7 hPa Calm   1.6 km/h 80 % 0 mm
23:10 5.7 °C 2.7 °C 1027.3 hPa Calm   1.6 km/h 81 % 0 mm
23:15 5.4 °C 2.4 °C 1027.3 hPa Calm   1.6 km/h 81 % 0 mm
23:19 5.3 °C 2.3 °C 1027.3 hPa Calm   1.6 km/h 81 % 0 mm
23:24 5.1 °C 2.1 °C 1027.3 hPa Calm   1.6 km/h 81 % 0 mm
23:29 4.9 °C 2.1 °C 1027.3 hPa Calm   1.6 km/h 82 % 0 mm
23:34 4.8 °C 2.2 °C 1027.3 hPa Calm   1.6 km/h 83 % 0 mm
23:35 4.7 °C 2.1 °C 1027.3 hPa Calm   1.6 km/h 83 % 0 mm
23:41 4.6 °C 2.1 °C 1027.3 hPa Calm   1.6 km/h 84 % 0 mm
23:44 4.5 °C 2 °C 1027.3 hPa Calm   1.6 km/h 84 % 0 mm
23:49 4.4 °C 2.1 °C 1027.3 hPa Calm   1.6 km/h 85 % 0 mm
23:54 4.3 °C 2 °C 1027.3 hPa Calm   1.6 km/h 85 % 0 mm
23:56 4.2 °C 1.9 °C 1027.3 hPa Calm   1.6 km/h 85 % 0 mm
Spring, Texas: Villages of Bridgestone
Compliments of Weather Underground - 3.25 mb

Script developed by  Jim McMurry - jmcmurry@mwt.net Adapted for the template by  Wim van der Kuil - Leuven-Template.eu

You find our weather info also at:

UK Metoffice

WeatherCloud

Weather Underground

Mid-South Weather Network

AWEKAS

Citizen Weather Observer Program (CWOP)

HAMweather, WeatherForYou, PWS Weather

Equipment we use:

Weather-station
Davis Vantage Vue

Weather-program
Meteohub

Weather-server
Debian 7.9 x86 (Guest)

Provider
DreamHost

Davis Vantage Vue

Meteohub

Debian 7.9 x86 (Guest)

DreamHost